createdAt,value
2019-01-14T19:59:26.432Z,52.15
2019-01-14T20:01:58.447Z,55.00
2019-01-14T20:04:27.990Z,61.97
2019-01-14T20:06:56.714Z,63.05
2019-01-14T20:09:25.440Z,63.88
2019-01-14T20:11:55.783Z,64.30
2019-01-14T20:14:26.082Z,64.63
2019-01-14T20:16:54.756Z,64.02
2019-01-14T20:19:23.513Z,63.97
2019-01-14T20:21:52.167Z,63.96
2019-01-14T20:24:20.883Z,63.69
2019-01-14T20:26:49.565Z,63.94
2019-01-14T20:29:18.201Z,63.96
2019-01-14T20:31:50.144Z,64.94
2019-01-14T20:34:18.716Z,65.38
2019-01-14T20:36:47.405Z,64.93
2019-01-14T20:40:00.682Z,65.11
2019-01-14T20:42:29.298Z,64.75
2019-01-14T20:44:57.958Z,65.02
2019-01-14T20:47:27.763Z,64.55
2019-01-14T20:49:58.735Z,64.73
2019-01-14T20:52:27.462Z,64.11
2019-01-14T20:54:57.677Z,64.67
2019-01-14T20:57:26.188Z,65.67
2019-01-14T20:59:54.820Z,66.54
2019-01-14T21:02:23.590Z,66.59
2019-01-14T21:04:52.604Z,66.39
2019-01-14T21:07:21.218Z,66.95
2019-01-14T21:09:51.802Z,67.06
2019-01-14T21:12:20.543Z,66.73
2019-01-14T21:14:49.188Z,66.76
2019-01-14T21:17:17.742Z,66.45
2019-01-14T21:19:46.362Z,66.46
2019-01-14T21:22:14.992Z,65.98
2019-01-14T21:24:43.627Z,65.21
2019-01-14T21:27:12.325Z,65.19
2019-01-14T21:29:40.935Z,65.54
2019-01-14T21:32:09.518Z,64.96
2019-01-14T21:34:38.814Z,64.64
2019-01-14T21:37:07.440Z,64.71
2019-01-14T21:39:35.999Z,63.56
2019-01-14T21:42:04.735Z,62.52
2019-01-14T21:44:33.239Z,62.94
2019-01-14T21:47:01.703Z,62.89
2019-01-14T21:49:30.198Z,62.64
2019-01-14T21:51:58.709Z,62.67
2019-01-14T21:54:27.274Z,62.59
2019-01-14T21:56:55.736Z,62.96
2019-01-14T21:59:24.156Z,62.35
2019-01-14T22:01:52.638Z,62.41
2019-01-14T22:04:21.078Z,61.92
2019-01-14T22:06:49.492Z,61.82
2019-01-14T22:09:18.076Z,61.70
2019-01-14T22:11:46.490Z,62.47
2019-01-14T22:14:14.887Z,62.66
2019-01-14T22:16:43.350Z,62.46
2019-01-14T22:19:11.783Z,62.13
2019-01-14T22:21:40.179Z,62.87
2019-01-14T22:24:08.602Z,62.58
2019-01-14T22:26:37.084Z,62.83
2019-01-14T22:29:05.516Z,62.91
2019-01-14T22:31:33.923Z,62.67
2019-01-14T22:34:02.469Z,62.19
2019-01-14T22:36:30.891Z,62.13
2019-01-14T22:38:59.331Z,62.73
2019-01-14T22:41:27.729Z,62.45
2019-01-14T22:43:56.161Z,62.15
2019-01-14T22:46:24.583Z,62.69
2019-01-14T22:48:53.021Z,62.81
2019-01-14T22:51:21.477Z,64.79
2019-01-14T22:53:49.929Z,64.86
2019-01-14T22:56:18.387Z,64.62
2019-01-14T22:58:46.787Z,63.87
2019-01-14T23:01:18.535Z,63.93
2019-01-14T23:03:47.215Z,64.30
2019-01-14T23:06:15.621Z,64.69
2019-01-14T23:08:44.644Z,64.69
2019-01-14T23:11:13.050Z,65.10
2019-01-14T23:13:41.488Z,65.11
2019-01-14T23:16:09.926Z,64.99
2019-01-14T23:18:38.364Z,65.10
2019-01-14T23:21:06.809Z,65.39
2019-01-14T23:23:35.259Z,65.54
2019-01-14T23:26:03.689Z,66.26
2019-01-14T23:28:32.070Z,66.26
2019-01-14T23:31:00.526Z,65.20
2019-01-14T23:33:29.023Z,64.79
2019-01-14T23:35:57.413Z,65.09
2019-01-14T23:38:25.859Z,65.53
2019-01-14T23:40:54.263Z,65.71
2019-01-14T23:43:22.700Z,65.46
2019-01-14T23:45:51.111Z,65.65
2019-01-14T23:48:19.557Z,65.68
2019-01-14T23:50:47.973Z,65.54
2019-01-14T23:53:16.398Z,66.29
2019-01-14T23:55:44.823Z,65.98
2019-01-14T23:58:13.257Z,66.03
